createdAt,value
2022-11-02T00:00:02.308Z,13.90
2022-11-02T00:03:05.616Z,13.90
2022-11-02T00:06:08.764Z,13.90
2022-11-02T00:09:11.944Z,13.80
2022-11-02T00:12:14.876Z,13.80
2022-11-02T00:15:20.431Z,13.80
2022-11-02T00:18:23.802Z,13.80
2022-11-02T00:21:28.316Z,13.90
2022-11-02T00:24:34.106Z,13.80
2022-11-02T00:27:37.250Z,13.90
2022-11-02T00:30:41.932Z,13.20
2022-11-02T00:33:44.922Z,13.80
2022-11-02T00:36:53.035Z,13.90
2022-11-02T00:39:59.509Z,13.90
2022-11-02T00:43:02.605Z,13.90
2022-11-02T00:46:07.292Z,13.90
2022-11-02T00:49:10.421Z,13.90
2022-11-02T00:52:13.510Z,13.10
2022-11-02T00:55:18.006Z,13.90
2022-11-02T00:58:21.304Z,13.90
2022-11-02T01:01:25.846Z,13.90
2022-11-02T01:04:28.901Z,13.90
2022-11-02T01:07:32.484Z,13.90
2022-11-02T01:10:35.547Z,13.70
2022-11-02T01:13:38.498Z,14.00
2022-11-02T01:19:47.633Z,13.90
2022-11-02T01:22:50.616Z,13.90
2022-11-02T01:25:54.094Z,13.90
2022-11-02T01:28:57.549Z,14.70
2022-11-02T01:32:02.065Z,13.90
2022-11-02T01:35:06.162Z,13.90
2022-11-02T01:38:09.351Z,13.90
2022-11-02T01:41:14.009Z,13.90
2022-11-02T01:44:32.388Z,13.90
2022-11-02T01:47:39.219Z,13.90
2022-11-02T01:50:43.148Z,13.90
2022-11-02T01:53:50.538Z,13.90
2022-11-02T01:56:59.318Z,13.90
2022-11-02T02:00:08.508Z,13.80
2022-11-02T02:03:16.784Z,13.90
2022-11-02T02:06:19.716Z,13.80
2022-11-02T02:09:24.141Z,14.50
2022-11-02T02:12:28.555Z,13.80
2022-11-02T02:15:51.143Z,13.90
2022-11-02T02:19:02.176Z,13.80
2022-11-02T02:22:45.631Z,14.40
2022-11-02T02:26:28.722Z,13.80
2022-11-02T02:29:45.724Z,13.80
2022-11-02T02:32:57.747Z,13.80
2022-11-02T02:36:08.070Z,13.80
2022-11-02T02:39:18.918Z,13.50
2022-11-02T02:42:29.423Z,13.80
2022-11-02T02:45:39.878Z,13.80
2022-11-02T02:48:46.487Z,13.80
2022-11-02T02:51:51.091Z,13.70
2022-11-02T02:55:00.359Z,13.70
2022-11-02T02:58:05.476Z,13.70
2022-11-02T03:01:14.536Z,13.80
2022-11-02T03:04:17.732Z,13.80
2022-11-02T03:07:31.122Z,13.70
2022-11-02T03:10:48.579Z,13.70
2022-11-02T03:14:06.228Z,13.80
2022-11-02T03:17:18.856Z,13.80
2022-11-02T03:20:30.945Z,13.50
2022-11-02T03:23:40.452Z,13.90
2022-11-02T03:26:51.366Z,13.80
2022-11-02T03:30:04.135Z,13.70
2022-11-02T03:33:16.351Z,13.80
2022-11-02T03:36:26.978Z,13.80
2022-11-02T03:39:37.997Z,13.80
2022-11-02T03:42:42.798Z,13.80
2022-11-02T03:45:51.643Z,13.80
2022-11-02T03:48:57.712Z,13.80
2022-11-02T03:52:07.544Z,13.80
2022-11-02T03:55:14.682Z,13.80
2022-11-02T03:58:17.833Z,14.00
2022-11-02T04:01:22.121Z,14.60
2022-11-02T04:04:26.830Z,13.80
2022-11-02T04:07:58.533Z,13.80
2022-11-02T04:11:20.478Z,13.90
2022-11-02T04:14:38.883Z,13.90
2022-11-02T04:17:59.464Z,13.90
2022-11-02T04:21:03.905Z,13.90
2022-11-02T04:24:33.331Z,13.90
2022-11-02T04:27:39.338Z,13.90
2022-11-02T04:30:42.258Z,14.00
2022-11-02T04:33:45.684Z,14.00
2022-11-02T04:36:50.042Z,13.90
2022-11-02T04:39:52.139Z,14.00
2022-11-02T04:42:55.799Z,14.00
2022-11-02T04:45:59.444Z,14.00
2022-11-02T04:49:02.883Z,14.00
2022-11-02T04:52:07.453Z,14.00
2022-11-02T04:55:11.093Z,14.10
2022-11-02T04:58:14.235Z,14.10
2022-11-02T05:01:19.856Z,14.10
2022-11-02T05:04:23.904Z,13.70
2022-11-02T05:07:28.235Z,14.10
2022-11-02T05:10:31.478Z,14.10
2022-11-02T05:13:34.686Z,14.20
2022-11-02T05:16:37.758Z,14.20
2022-11-02T05:19:40.721Z,14.20
2022-11-02T05:22:46.969Z,14.30
2022-11-02T05:25:57.823Z,14.30
2022-11-02T05:29:00.789Z,14.70
2022-11-02T05:32:04.016Z,14.40
2022-11-02T05:35:08.273Z,14.40
2022-11-02T05:38:13.524Z,14.40
2022-11-02T05:41:17.052Z,14.40
2022-11-02T05:44:19.975Z,14.40
2022-11-02T05:47:22.978Z,14.50
2022-11-02T05:50:26.065Z,14.50
2022-11-02T05:53:34.186Z,14.50
2022-11-02T05:56:37.347Z,14.50
2022-11-02T05:59:41.731Z,14.60
2022-11-02T06:02:48.066Z,14.50
2022-11-02T06:05:56.937Z,14.50
2022-11-02T06:09:05.914Z,14.60
2022-11-02T06:12:10.166Z,14.60
2022-11-02T06:15:13.189Z,14.60
2022-11-02T06:18:16.505Z,14.60
2022-11-02T06:21:19.726Z,14.50
2022-11-02T06:24:24.169Z,14.50
2022-11-02T06:27:27.271Z,14.50
2022-11-02T06:30:30.213Z,14.50
2022-11-02T06:33:33.449Z,14.60
2022-11-02T06:36:36.450Z,14.60
2022-11-02T06:39:40.830Z,14.60
2022-11-02T06:42:56.471Z,14.50
2022-11-02T06:46:07.917Z,14.50
2022-11-02T06:49:10.970Z,14.50
2022-11-02T06:52:14.644Z,14.40
2022-11-02T06:55:20.002Z,14.40
2022-11-02T06:58:23.298Z,14.40
2022-11-02T07:01:26.412Z,14.40
2022-11-02T07:04:29.543Z,14.40
2022-11-02T07:07:32.658Z,14.40
2022-11-02T07:10:37.149Z,14.60
2022-11-02T07:13:40.565Z,14.40
2022-11-02T07:16:43.482Z,14.40
2022-11-02T07:19:46.497Z,14.40
2022-11-02T07:22:54.778Z,14.40
2022-11-02T07:25:59.124Z,14.40
2022-11-02T07:29:02.241Z,14.50
2022-11-02T07:32:07.531Z,14.50
2022-11-02T07:35:13.378Z,14.60
2022-11-02T07:38:16.516Z,14.60
2022-11-02T07:41:20.882Z,14.60
2022-11-02T07:44:23.888Z,14.60
2022-11-02T07:47:27.760Z,14.60
2022-11-02T07:50:30.889Z,14.60
2022-11-02T07:53:33.834Z,14.60
2022-11-02T07:56:38.285Z,14.60
2022-11-02T07:59:41.302Z,14.80
2022-11-02T08:02:44.284Z,14.70
2022-11-02T08:05:47.897Z,14.70
2022-11-02T08:08:50.856Z,14.70
2022-11-02T08:11:57.547Z,14.70
2022-11-02T08:15:06.317Z,14.70
2022-11-02T08:18:15.727Z,14.80
2022-11-02T08:21:18.927Z,14.80
2022-11-02T08:24:21.945Z,14.80
2022-11-02T08:27:26.413Z,15.10
2022-11-02T08:30:31.690Z,14.90
2022-11-02T08:33:34.762Z,14.90
2022-11-02T08:36:37.746Z,14.90
2022-11-02T08:39:40.730Z,15.00
2022-11-02T08:42:45.050Z,15.00
2022-11-02T08:46:17.688Z,15.00
2022-11-02T08:49:11.384Z,15.00
2022-11-02T08:52:14.682Z,15.10
2022-11-02T08:55:18.298Z,15.10
2022-11-02T08:58:23.113Z,15.20
2022-11-02T09:01:26.277Z,15.20
2022-11-02T09:04:29.337Z,15.30
2022-11-02T09:07:32.396Z,14.60
2022-11-02T09:10:37.474Z,15.40
2022-11-02T09:13:41.983Z,15.60
2022-11-02T09:16:44.968Z,15.60
2022-11-02T09:19:47.917Z,15.70
2022-11-02T09:22:51.007Z,15.70
2022-11-02T09:25:54.018Z,15.80
2022-11-02T09:28:58.388Z,15.80
2022-11-02T09:32:01.400Z,15.90
2022-11-02T09:35:08.871Z,15.90
2022-11-02T09:38:12.181Z,16.60
2022-11-02T09:41:27.743Z,16.10
2022-11-02T09:44:47.375Z,16.10
2022-11-02T09:48:16.012Z,16.20
2022-11-02T09:51:26.084Z,16.30
2022-11-02T09:54:34.698Z,16.40
2022-11-02T09:57:40.790Z,16.40
2022-11-02T10:00:51.829Z,16.50
2022-11-02T10:04:19.044Z,16.60
2022-11-02T10:07:52.762Z,16.70
2022-11-02T10:11:14.766Z,16.70
2022-11-02T10:14:24.883Z,16.70
2022-11-02T10:17:34.203Z,16.70
2022-11-02T10:20:46.437Z,16.80
2022-11-02T10:23:53.994Z,16.80
2022-11-02T10:27:01.656Z,16.90
2022-11-02T10:30:08.931Z,16.90
2022-11-02T10:33:17.147Z,16.90
2022-11-02T10:36:41.676Z,17.00
2022-11-02T10:40:01.523Z,17.00
2022-11-02T10:43:22.702Z,17.00
2022-11-02T10:46:43.476Z,17.00
2022-11-02T10:50:29.172Z,17.00
2022-11-02T10:53:42.145Z,17.00
2022-11-02T10:56:47.091Z,17.00
2022-11-02T11:00:29.337Z,17.00
2022-11-02T11:03:32.738Z,17.10
2022-11-02T11:06:39.909Z,17.10
2022-11-02T11:09:54.899Z,17.10
2022-11-02T11:12:59.694Z,17.20
2022-11-02T11:16:06.981Z,17.20
2022-11-02T11:19:41.472Z,17.30
2022-11-02T11:22:44.761Z,17.20
2022-11-02T11:26:05.481Z,17.30
2022-11-02T11:29:23.714Z,17.20
2022-11-02T11:32:30.974Z,17.10
2022-11-02T11:35:42.452Z,17.20
2022-11-02T11:38:56.636Z,17.10
2022-11-02T11:42:03.184Z,17.20
2022-11-02T11:45:18.438Z,17.20
2022-11-02T11:48:34.847Z,17.10
2022-11-02T11:51:43.833Z,17.10
2022-11-02T11:54:56.483Z,17.00
2022-11-02T11:58:22.821Z,16.90
2022-11-02T12:01:27.212Z,16.80
2022-11-02T12:04:36.250Z,16.70
2022-11-02T12:08:05.061Z,16.50
2022-11-02T12:11:30.073Z,16.30
2022-11-02T12:14:56.935Z,16.20
2022-11-02T12:18:18.694Z,16.00
2022-11-02T12:21:48.657Z,15.80
2022-11-02T12:25:17.461Z,15.90
2022-11-02T12:28:40.076Z,15.70
2022-11-02T12:31:47.530Z,15.70
2022-11-02T12:35:28.357Z,15.70
2022-11-02T12:39:03.251Z,15.70
2022-11-02T12:42:23.768Z,15.80
2022-11-02T12:45:43.413Z,16.50
2022-11-02T12:49:03.554Z,15.90
2022-11-02T12:52:24.953Z,15.80
2022-11-02T12:55:38.571Z,15.70
2022-11-02T12:58:44.744Z,15.60
2022-11-02T13:01:53.129Z,15.50
2022-11-02T13:05:04.907Z,15.20
2022-11-02T13:08:15.782Z,15.10
2022-11-02T13:11:38.210Z,15.00
2022-11-02T13:14:45.235Z,15.30
2022-11-02T13:17:54.608Z,15.50
2022-11-02T13:21:01.695Z,14.90
2022-11-02T13:24:11.679Z,15.00
2022-11-02T13:27:36.435Z,15.10
2022-11-02T13:30:41.817Z,15.10
2022-11-02T13:33:49.554Z,15.30
2022-11-02T13:36:52.484Z,15.30
2022-11-02T13:40:01.882Z,15.30
2022-11-02T13:43:57.922Z,15.30
2022-11-02T13:47:39.689Z,15.40
2022-11-02T13:50:50.831Z,15.50
2022-11-02T13:54:01.804Z,15.90
2022-11-02T13:57:04.801Z,15.50
2022-11-02T14:00:38.598Z,15.60
2022-11-02T14:03:58.829Z,15.60
2022-11-02T14:07:10.494Z,15.60
2022-11-02T14:10:23.822Z,15.30
2022-11-02T14:14:30.241Z,15.50
2022-11-02T14:18:13.511Z,15.50
2022-11-02T14:21:44.101Z,15.40
2022-11-02T14:25:09.628Z,14.90
2022-11-02T14:28:36.696Z,15.20
2022-11-02T14:32:03.930Z,15.10
2022-11-02T14:35:26.843Z,15.00
2022-11-02T14:38:53.869Z,14.80
2022-11-02T14:42:35.506Z,14.80
2022-11-02T14:46:09.677Z,14.80
2022-11-02T14:49:22.753Z,14.70
2022-11-02T14:52:30.885Z,14.70
2022-11-02T14:55:37.315Z,14.70
2022-11-02T14:58:51.636Z,14.60
2022-11-02T15:02:01.918Z,14.60
2022-11-02T15:05:09.865Z,14.60
2022-11-02T15:08:28.371Z,14.60
2022-11-02T15:11:50.844Z,14.60
2022-11-02T15:15:00.308Z,14.50
2022-11-02T15:18:37.127Z,14.60
2022-11-02T15:21:40.263Z,14.50
2022-11-02T15:24:47.379Z,14.50
2022-11-02T15:27:53.309Z,14.50
2022-11-02T15:31:00.752Z,14.50
2022-11-02T15:34:17.409Z,14.50
2022-11-02T15:37:24.330Z,14.40
2022-11-02T15:40:48.629Z,14.40
2022-11-02T15:44:28.193Z,14.30
2022-11-02T15:47:48.878Z,14.20
2022-11-02T15:51:03.715Z,14.10
2022-11-02T15:54:25.753Z,14.00
2022-11-02T15:57:45.519Z,13.90
2022-11-02T16:01:18.586Z,13.90
2022-11-02T16:04:23.404Z,13.70
2022-11-02T16:07:38.414Z,13.70
2022-11-02T16:11:06.028Z,13.60
2022-11-02T16:14:18.817Z,13.60
2022-11-02T16:17:24.570Z,13.50
2022-11-02T16:20:30.285Z,13.40
2022-11-02T16:23:36.680Z,13.40
2022-11-02T16:26:39.515Z,13.30
2022-11-02T16:29:44.639Z,13.30
2022-11-02T16:32:51.269Z,13.20
2022-11-02T16:35:55.434Z,13.20
2022-11-02T16:39:00.967Z,13.20
2022-11-02T16:42:10.647Z,13.10
2022-11-02T16:45:37.164Z,13.10
2022-11-02T16:49:12.771Z,13.10
2022-11-02T16:52:23.037Z,13.10
2022-11-02T16:55:43.084Z,13.10
2022-11-02T16:58:51.457Z,13.20
2022-11-02T17:02:01.687Z,13.20
2022-11-02T17:05:08.218Z,13.20
2022-11-02T17:08:31.611Z,13.20
2022-11-02T17:11:34.928Z,12.50
2022-11-02T17:14:44.046Z,13.10
2022-11-02T17:17:49.798Z,13.10
2022-11-02T17:21:27.144Z,13.10
2022-11-02T17:24:36.131Z,13.10
2022-11-02T17:27:42.394Z,13.00
2022-11-02T17:30:48.328Z,13.00
2022-11-02T17:33:54.306Z,12.90
2022-11-02T17:36:57.955Z,12.90
2022-11-02T17:40:02.700Z,12.90
2022-11-02T17:43:04.822Z,12.90
2022-11-02T17:46:09.918Z,12.80
2022-11-02T17:49:14.047Z,12.80
2022-11-02T17:52:18.133Z,12.70
2022-11-02T17:55:26.693Z,12.70
2022-11-02T17:58:29.591Z,12.70
2022-11-02T18:01:34.258Z,12.60
2022-11-02T18:04:38.490Z,12.60
2022-11-02T18:07:41.479Z,12.50
2022-11-02T18:10:48.543Z,12.60
2022-11-02T18:13:51.844Z,13.50
2022-11-02T18:16:54.712Z,12.50
2022-11-02T18:19:58.935Z,12.50
2022-11-02T18:23:03.839Z,12.40
2022-11-02T18:26:07.782Z,12.40
2022-11-02T18:29:10.581Z,12.30
2022-11-02T18:32:13.582Z,12.30
2022-11-02T18:35:25.560Z,12.30
2022-11-02T18:38:28.347Z,12.20
2022-11-02T18:41:34.737Z,12.20
2022-11-02T18:44:38.079Z,12.20
2022-11-02T18:47:42.685Z,12.10
2022-11-02T18:50:48.731Z,12.20
2022-11-02T18:53:58.377Z,12.10
2022-11-02T18:57:02.887Z,12.10
2022-11-02T19:00:07.784Z,12.00
2022-11-02T19:03:12.118Z,12.00
2022-11-02T19:06:45.579Z,12.00
2022-11-02T19:09:48.504Z,11.90
2022-11-02T19:12:51.369Z,11.70
2022-11-02T19:15:54.503Z,11.90
2022-11-02T19:18:57.724Z,11.90
2022-11-02T19:22:02.178Z,11.90
2022-11-02T19:25:06.146Z,11.80
2022-11-02T19:28:09.751Z,11.80
2022-11-02T19:31:13.418Z,11.80
2022-11-02T19:34:17.148Z,11.80
2022-11-02T19:37:21.744Z,11.80
2022-11-02T19:40:26.432Z,11.80
2022-11-02T19:43:29.455Z,11.80
2022-11-02T19:46:32.418Z,12.00
2022-11-02T19:49:36.598Z,11.80
2022-11-02T19:52:41.030Z,11.70
2022-11-02T19:55:52.901Z,11.10
2022-11-02T19:58:56.344Z,11.70
2022-11-02T20:01:59.474Z,11.70
2022-11-02T20:05:02.809Z,11.70
2022-11-02T20:08:07.508Z,11.70
2022-11-02T20:11:13.266Z,11.60
2022-11-02T20:14:18.487Z,11.60
2022-11-02T20:17:46.873Z,11.60
2022-11-02T20:20:44.133Z,11.60
2022-11-02T20:23:49.943Z,11.50
2022-11-02T20:26:56.017Z,11.50
2022-11-02T20:29:58.800Z,11.60
2022-11-02T20:33:02.619Z,11.40
2022-11-02T20:36:07.585Z,11.40
2022-11-02T20:39:13.535Z,11.40
2022-11-02T20:42:16.503Z,11.40
2022-11-02T20:45:19.724Z,11.40
2022-11-02T20:51:30.980Z,11.40
2022-11-02T20:54:35.092Z,11.40
2022-11-02T20:57:37.869Z,11.40
2022-11-02T21:00:41.750Z,11.50
2022-11-02T21:03:46.120Z,11.40
2022-11-02T21:06:50.922Z,11.40
2022-11-02T21:09:55.234Z,11.70
2022-11-02T21:13:15.902Z,11.40
2022-11-02T21:16:19.150Z,11.40
2022-11-02T21:19:22.034Z,11.30
2022-11-02T21:22:26.076Z,11.30
2022-11-02T21:25:30.981Z,11.30
2022-11-02T21:31:45.945Z,11.20
2022-11-02T21:34:48.834Z,11.20
2022-11-02T21:37:56.257Z,11.20
2022-11-02T21:41:02.810Z,11.20
2022-11-02T21:44:08.011Z,11.20
2022-11-02T21:47:10.918Z,11.20
2022-11-02T21:50:13.717Z,11.20
2022-11-02T21:53:16.599Z,11.20
2022-11-02T21:56:25.525Z,11.20
2022-11-02T21:59:28.335Z,11.20
2022-11-02T22:02:31.245Z,11.20
2022-11-02T22:05:48.018Z,11.20
2022-11-02T22:08:51.515Z,11.20
2022-11-02T22:12:10.374Z,11.20
2022-11-02T22:15:13.705Z,11.20
2022-11-02T22:18:16.508Z,11.20
2022-11-02T22:21:21.087Z,11.20
2022-11-02T22:24:25.786Z,10.50
2022-11-02T22:27:31.164Z,11.20
2022-11-02T22:30:33.947Z,11.30
2022-11-02T22:33:37.532Z,11.20
2022-11-02T22:36:45.527Z,11.20
2022-11-02T22:39:48.381Z,11.30
2022-11-02T22:42:55.924Z,11.30
2022-11-02T22:46:04.020Z,11.30
2022-11-02T22:49:09.801Z,11.40
2022-11-02T22:52:12.586Z,11.40
2022-11-02T22:55:15.479Z,11.40
2022-11-02T22:58:19.792Z,11.40
2022-11-02T23:01:25.354Z,11.40
2022-11-02T23:04:28.231Z,11.40
2022-11-02T23:07:31.022Z,11.50
2022-11-02T23:10:54.717Z,11.40
2022-11-02T23:14:03.262Z,12.30
2022-11-02T23:17:06.105Z,11.40
2022-11-02T23:20:11.209Z,11.40
2022-11-02T23:23:31.610Z,11.40
2022-11-02T23:26:35.095Z,11.40
2022-11-02T23:29:57.619Z,11.40
2022-11-02T23:33:00.412Z,11.40
2022-11-02T23:36:15.153Z,11.40
2022-11-02T23:39:35.582Z,11.40
2022-11-02T23:42:38.577Z,11.40
2022-11-02T23:45:42.734Z,11.40
2022-11-02T23:48:48.411Z,11.40
2022-11-02T23:52:11.746Z,11.40
2022-11-02T23:55:32.618Z,11.40
2022-11-02T23:58:36.214Z,11.40
